aviador You're here:

OPPS Decoded Metar

PESHAWAR in PAKISTAN
Report Time2017-10-22 17:00:00
UTC Time2017-10-22 17:21:19
Flight Rules ifr IFR
Wind130° at 10 kt
W.Decomp.*RWY 17: 7.4 kt HW 6.7 kt LCW
W.Rank130° ranks 4
Current wind is above 130° avg. (7.1)
Visibility2500 m
Phenomena:Haze
Clouds:Few 040 Hf
Expected CloudBase > 4,000 ft AGL from Temp-Dew spread
CeilingNone
Temp23°C (ISA +10)
Dew Point13°C (53% RH)
AAT20.3°C
QNH1010 hPa
Density Alt2,687 ft
Elevation1,181 ft
Report Wrong Elevation
Raw Report
METAR OPPS 221700Z 13010KT 2500 HZ FEW040 23/13 Q1010=

Extra information for OPPS:More info

Metar Taf Metar & Taf Last 4 Metars F.Rules Stats Wind Profile Meteogram Temp Stats Airport Information Weather charts Add Link Nearby VenuesMetar ALERT Operation Metar Decoded Social comments